About

Name: Findlay Airport
Identifier:  FDY/KFDY
Serves:  Findlay, Ohio
Owner:  City of Findlay
Public/Private:  Public
Local Time:  26. Jan 23:17 EST
Description: Findlay Airport is 1 mile southwest of Findlay, in Hancock County, Ohio.
Source: Wikipedia

Location

Findlay Airport

Runways
Identifier Length (m/ft) Surface
18/36 1,981/6,499 Asphalt
7/25 1,793/5,883 Asphalt

Statistics

Flights Per Day:
0 Flights
Distance: 606km (377mi)
Flights Delayed:
0% (0 Flights/Day Delayed)
Average Delay: 115 minutes

Current Weather

 2 C (Humidity: 80%)
  11kt (20km/h / 12mph) from 260°
  Overcast at 3,900 feet (1,188 meter)
  16km (10 mi.)
 METAR KFDY 270353Z AUTO 26011KT 10SM OVC039 02/M01 A2986 RMK AO2 SLP114 T00171006

Claim Compensation

Claim compensation for your flight delay or cancellation
Flight delays happen, but that doesn’t mean you have to accept them. You may be entitled to as much as €600/$700 in compensation if your flight has been delayed, canceled or overbooked within the last three years.

Current Delays

Departures

N/A

Arrivals

N/A

Destinations

Map

Top Destinations

Airport Flights
per week
Seats
per week
  Jackson (HKS) 0 - 0 0
  Oakland County (PTK) 0 - 0 0

Airlines & Planes

Top Airlines

Airline Flights
per day
Seats
per day
  IFL Group 0 -
  SkyWest Airlines 0 -

Top Models

model Flights seats
Bombardier Challenger 600 0.0/day - 0
Embraer EMB120 0.0/day - 0